createdAt,value
2023-05-03T00:04:43.876Z,1022.83
2023-05-03T00:10:41.716Z,1022.87
2023-05-03T00:22:17.789Z,1022.88
2023-05-03T00:41:06.300Z,1022.85
2023-05-03T00:46:48.697Z,1022.75
2023-05-03T00:52:36.231Z,1022.80
2023-05-03T01:03:56.491Z,1022.71
2023-05-03T01:09:09.158Z,1022.69
2023-05-03T01:14:56.278Z,1022.69
2023-05-03T01:20:19.369Z,1022.62
2023-05-03T01:25:55.281Z,1022.60
2023-05-03T01:31:21.779Z,1022.58
2023-05-03T01:52:31.446Z,1022.68
2023-05-03T01:57:56.761Z,1022.64
2023-05-03T02:03:15.535Z,1022.65
2023-05-03T02:08:53.668Z,1022.71
2023-05-03T02:14:01.174Z,1022.76
2023-05-03T02:19:09.109Z,1022.75
2023-05-03T02:24:21.279Z,1022.82
2023-05-03T02:30:08.791Z,1022.83
2023-05-03T02:35:24.554Z,1022.85
2023-05-03T02:40:33.285Z,1022.84
2023-05-03T02:45:42.165Z,1022.81
2023-05-03T02:50:49.597Z,1022.81
2023-05-03T02:55:56.905Z,1022.83
2023-05-03T03:01:04.169Z,1022.85
2023-05-03T03:06:11.557Z,1022.81
2023-05-03T03:11:18.719Z,1022.82
2023-05-03T03:16:26.042Z,1022.77
2023-05-03T03:21:33.164Z,1022.72
2023-05-03T03:26:40.366Z,1022.72
2023-05-03T03:31:47.558Z,1022.70
2023-05-03T03:36:55.809Z,1022.64
2023-05-03T03:42:03.098Z,1022.66
2023-05-03T03:47:10.287Z,1022.58
2023-05-03T03:52:17.605Z,1022.54
2023-05-03T03:57:24.856Z,1022.60
2023-05-03T04:02:32.175Z,1022.64
2023-05-03T04:07:39.348Z,1022.70
2023-05-03T04:12:46.528Z,1022.75
2023-05-03T04:17:53.766Z,1022.78
2023-05-03T04:23:01.001Z,1022.77
2023-05-03T04:28:08.188Z,1022.77
2023-05-03T04:33:15.336Z,1022.70
2023-05-03T04:38:22.525Z,1022.77
2023-05-03T04:43:29.842Z,1022.78
2023-05-03T04:48:37.022Z,1022.79
2023-05-03T04:53:44.192Z,1022.86
2023-05-03T04:58:51.396Z,1022.85
2023-05-03T05:03:58.664Z,1022.87
2023-05-03T05:09:05.755Z,1022.88
2023-05-03T05:14:12.948Z,1022.94
2023-05-03T05:19:20.134Z,1022.91
2023-05-03T05:24:27.406Z,1022.91
2023-05-03T05:29:34.610Z,1022.92
2023-05-03T05:34:45.676Z,1023.00
2023-05-03T05:39:49.045Z,1023.07
2023-05-03T05:44:56.259Z,1023.06
2023-05-03T05:50:05.869Z,1023.03
2023-05-03T05:55:10.641Z,1023.13
2023-05-03T06:00:17.848Z,1023.16
2023-05-03T06:05:25.050Z,1023.25
2023-05-03T06:10:32.176Z,1023.25
2023-05-03T06:15:39.387Z,1023.28
2023-05-03T06:20:46.546Z,1023.20
2023-05-03T06:25:53.717Z,1023.19
2023-05-03T06:31:01.006Z,1023.19
2023-05-03T06:36:08.096Z,1023.21
2023-05-03T06:41:15.304Z,1023.24
2023-05-03T06:46:23.617Z,1023.27
2023-05-03T06:51:30.748Z,1023.25
2023-05-03T06:56:37.982Z,1023.32
2023-05-03T07:01:45.231Z,1023.26
2023-05-03T07:06:56.326Z,1023.20
2023-05-03T07:11:59.518Z,1023.16
2023-05-03T07:17:07.671Z,1023.08
2023-05-03T07:22:14.578Z,1023.00
2023-05-03T07:27:21.770Z,1023.00
2023-05-03T07:32:29.067Z,1023.01
2023-05-03T07:37:36.182Z,1023.00
2023-05-03T07:42:43.409Z,1022.96
2023-05-03T07:47:50.738Z,1022.93
2023-05-03T07:52:57.787Z,1022.81
2023-05-03T07:58:05.066Z,1022.83
2023-05-03T08:03:12.548Z,1022.69
2023-05-03T08:08:19.417Z,1022.59
2023-05-03T08:13:26.641Z,1022.58
2023-05-03T08:18:33.939Z,1022.57
2023-05-03T08:23:41.217Z,1022.53
2023-05-03T08:28:48.483Z,1022.52
2023-05-03T08:33:55.662Z,1022.48
2023-05-03T08:39:02.842Z,1022.49
2023-05-03T08:44:10.063Z,1022.43
2023-05-03T08:49:17.338Z,1022.30
2023-05-03T08:54:24.518Z,1022.26
2023-05-03T08:59:31.688Z,1022.21
2023-05-03T09:04:38.967Z,1022.13
2023-05-03T09:09:47.238Z,1022.05
2023-05-03T09:14:53.232Z,1021.98
2023-05-03T09:20:00.836Z,1021.93
2023-05-03T09:25:07.731Z,1021.91
2023-05-03T09:30:14.979Z,1021.91
2023-05-03T09:35:22.258Z,1021.82
2023-05-03T09:40:29.482Z,1021.81
2023-05-03T09:45:36.729Z,1021.82
2023-05-03T09:50:43.889Z,1021.74
2023-05-03T09:55:51.086Z,1021.73
2023-05-03T10:00:58.251Z,1021.74
2023-05-03T10:06:05.497Z,1021.77
2023-05-03T10:11:12.572Z,1021.75
2023-05-03T10:16:55.475Z,1021.71
2023-05-03T10:22:03.021Z,1021.71
2023-05-03T10:27:10.190Z,1021.73
2023-05-03T10:32:17.458Z,1021.71
2023-05-03T10:37:24.746Z,1021.76
2023-05-03T10:42:31.912Z,1021.68
2023-05-03T10:47:39.149Z,1021.64
2023-05-03T10:52:46.348Z,1021.71
2023-05-03T10:57:53.458Z,1021.60
2023-05-03T11:03:00.685Z,1021.56
2023-05-03T11:08:07.964Z,1021.49
2023-05-03T11:13:15.031Z,1021.53
2023-05-03T11:18:22.202Z,1021.42
2023-05-03T11:23:29.516Z,1021.41
2023-05-03T11:28:36.656Z,1021.36
2023-05-03T11:33:44.628Z,1021.32
2023-05-03T11:38:51.079Z,1021.34
2023-05-03T11:44:14.481Z,1021.23
2023-05-03T11:49:05.429Z,1021.30
2023-05-03T11:54:24.178Z,1021.22
2023-05-03T11:59:19.987Z,1021.21
2023-05-03T12:04:27.312Z,1021.18
2023-05-03T12:09:35.571Z,1021.15
2023-05-03T12:14:42.047Z,1021.05
2023-05-03T12:19:49.256Z,1021.05
2023-05-03T12:24:58.329Z,1021.03
2023-05-03T12:30:03.890Z,1021.02
2023-05-03T12:35:13.949Z,1021.04
2023-05-03T12:40:31.670Z,1020.89
2023-05-03T12:45:28.198Z,1020.84
2023-05-03T12:50:32.707Z,1020.82
2023-05-03T12:55:43.733Z,1020.79
2023-05-03T13:01:15.982Z,1020.74
2023-05-03T13:05:54.074Z,1020.62
2023-05-03T13:11:01.277Z,1020.64
2023-05-03T13:16:08.280Z,1020.56
2023-05-03T13:21:15.448Z,1020.59
2023-05-03T13:26:22.674Z,1020.38
2023-05-03T13:31:29.806Z,1020.35
2023-05-03T13:36:37.023Z,1020.24
2023-05-03T13:41:45.350Z,1020.20
2023-05-03T13:46:51.362Z,1020.16
2023-05-03T13:51:58.570Z,1020.14
2023-05-03T13:57:05.803Z,1020.04
2023-05-03T14:02:12.948Z,1020.07
2023-05-03T14:07:20.125Z,1020.08
2023-05-03T14:12:27.656Z,1019.96
2023-05-03T14:17:34.576Z,1020.04
2023-05-03T14:22:41.669Z,1019.97
2023-05-03T14:27:49.074Z,1019.98
2023-05-03T14:32:56.177Z,1019.94
2023-05-03T14:38:03.317Z,1019.95
2023-05-03T14:43:10.565Z,1019.87
2023-05-03T14:48:17.807Z,1019.89
2023-05-03T14:53:25.121Z,1019.88
2023-05-03T14:58:32.629Z,1019.83
2023-05-03T15:03:40.108Z,1019.89
2023-05-03T15:08:47.379Z,1019.82
2023-05-03T15:13:54.735Z,1019.80
2023-05-03T15:19:01.971Z,1019.77
2023-05-03T15:24:09.211Z,1019.84
2023-05-03T15:29:16.693Z,1019.92
2023-05-03T15:34:30.346Z,1019.81
2023-05-03T15:39:38.272Z,1019.91
2023-05-03T15:44:58.230Z,1019.87
2023-05-03T15:50:16.145Z,1019.87
2023-05-03T15:55:23.623Z,1019.84
2023-05-03T16:00:31.394Z,1019.92
2023-05-03T16:05:43.690Z,1019.94
2023-05-03T16:11:12.814Z,1019.80
2023-05-03T16:16:29.535Z,1019.76
2023-05-03T16:21:19.880Z,1019.76
2023-05-03T16:27:06.010Z,1019.90
2023-05-03T16:32:34.401Z,1019.68
2023-05-03T16:37:52.201Z,1019.67
2023-05-03T16:42:59.865Z,1019.66
2023-05-03T16:48:09.060Z,1019.68
2023-05-03T16:53:14.573Z,1019.69
2023-05-03T16:58:21.918Z,1019.74
2023-05-03T17:03:29.371Z,1019.75
2023-05-03T17:08:36.454Z,1019.73
2023-05-03T17:13:43.664Z,1019.76
2023-05-03T17:18:50.958Z,1019.75
2023-05-03T17:23:58.194Z,1019.75
2023-05-03T17:29:05.548Z,1019.78
2023-05-03T17:34:12.977Z,1019.74
2023-05-03T17:40:17.432Z,1019.77
2023-05-03T17:45:44.069Z,1019.77
2023-05-03T17:51:26.484Z,1019.81
2023-05-03T17:57:09.213Z,1019.80
2023-05-03T18:02:51.801Z,1019.82
2023-05-03T18:08:11.594Z,1019.87
2023-05-03T18:13:35.692Z,1019.93
2023-05-03T18:19:51.952Z,1019.92
2023-05-03T18:24:09.064Z,1019.99
2023-05-03T18:29:16.042Z,1020.02
2023-05-03T18:34:24.586Z,1020.00
2023-05-03T18:39:38.120Z,1020.04
2023-05-03T18:45:26.226Z,1020.16
2023-05-03T18:51:08.773Z,1020.15
2023-05-03T18:57:01.978Z,1020.19
2023-05-03T19:02:15.723Z,1020.18
2023-05-03T19:07:48.647Z,1020.25
2023-05-03T19:13:01.993Z,1020.28
2023-05-03T19:24:00.324Z,1020.31
2023-05-03T19:29:44.217Z,1020.36
2023-05-03T19:35:32.372Z,1020.31
2023-05-03T19:41:14.929Z,1020.29
2023-05-03T19:52:10.934Z,1020.36
2023-05-03T19:57:19.976Z,1020.40
2023-05-03T20:02:28.201Z,1020.40
2023-05-03T20:07:36.277Z,1020.47
2023-05-03T20:12:43.937Z,1020.56
2023-05-03T20:17:51.244Z,1020.51
2023-05-03T20:22:58.531Z,1020.56
2023-05-03T20:28:05.745Z,1020.55
2023-05-03T20:33:13.095Z,1020.48
2023-05-03T20:38:20.486Z,1020.47
2023-05-03T20:43:27.862Z,1020.44
2023-05-03T20:48:35.184Z,1020.46
2023-05-03T20:53:42.669Z,1020.48
2023-05-03T20:58:49.713Z,1020.46
2023-05-03T21:03:57.119Z,1020.46
2023-05-03T21:09:04.339Z,1020.40
2023-05-03T21:14:11.503Z,1020.42
2023-05-03T21:19:18.722Z,1020.38
2023-05-03T21:24:26.008Z,1020.42
2023-05-03T21:29:33.157Z,1020.41
2023-05-03T21:34:40.432Z,1020.41
2023-05-03T21:39:58.001Z,1020.42
2023-05-03T21:44:54.788Z,1020.41
2023-05-03T21:50:02.351Z,1020.41
2023-05-03T21:55:09.388Z,1020.38
2023-05-03T22:00:16.561Z,1020.44
2023-05-03T22:05:23.724Z,1020.36
2023-05-03T22:10:30.930Z,1020.30
2023-05-03T22:15:38.233Z,1020.30
2023-05-03T22:20:45.399Z,1020.31
2023-05-03T22:25:52.658Z,1020.26
2023-05-03T22:30:59.754Z,1020.27
2023-05-03T22:36:06.960Z,1020.27
2023-05-03T22:41:14.150Z,1020.29
2023-05-03T22:46:21.493Z,1020.25
2023-05-03T22:51:28.517Z,1020.25
2023-05-03T22:56:35.775Z,1020.26
2023-05-03T23:01:42.955Z,1020.20
2023-05-03T23:06:50.083Z,1020.18
2023-05-03T23:11:57.270Z,1020.16
2023-05-03T23:17:04.522Z,1020.16
2023-05-03T23:22:11.705Z,1020.10
2023-05-03T23:27:18.924Z,1020.09
2023-05-03T23:32:26.157Z,1020.06
2023-05-03T23:37:33.273Z,1020.11
2023-05-03T23:42:40.478Z,1020.09
2023-05-03T23:47:47.688Z,1020.03
2023-05-03T23:52:54.826Z,1019.94
2023-05-03T23:58:02.134Z,1019.91
